createdAt,value
2024-02-01T00:00:22.560Z,91.58
2024-02-01T00:01:25.510Z,92.00
2024-02-01T00:02:27.320Z,91.37
2024-02-01T00:03:30.266Z,91.33
2024-02-01T00:04:32.216Z,91.38
2024-02-01T00:05:35.278Z,90.93
2024-02-01T00:06:40.210Z,90.91
2024-02-01T00:07:43.140Z,90.54
2024-02-01T00:08:45.070Z,91.14
2024-02-01T00:09:50.818Z,91.00
2024-02-01T00:11:04.429Z,91.10
2024-02-01T00:12:08.196Z,91.37
2024-02-01T00:13:10.812Z,91.11
2024-02-01T00:14:13.752Z,91.31
2024-02-01T00:15:15.883Z,91.11
2024-02-01T00:16:22.347Z,91.22
2024-02-01T00:17:24.551Z,91.37
2024-02-01T00:18:27.411Z,91.10
2024-02-01T00:19:29.391Z,91.54
2024-02-01T00:20:32.292Z,91.90
2024-02-01T00:21:34.273Z,91.53
2024-02-01T00:22:38.376Z,91.81
2024-02-01T00:23:41.450Z,91.82
2024-02-01T00:24:43.368Z,91.72
2024-02-01T00:25:46.316Z,91.49
2024-02-01T00:26:48.211Z,91.72
2024-02-01T00:27:51.148Z,91.47
2024-02-01T00:28:52.946Z,92.08
2024-02-01T00:29:55.032Z,92.16
2024-02-01T00:30:57.893Z,92.58
2024-02-01T00:31:59.831Z,92.69
2024-02-01T00:33:04.688Z,93.21
2024-02-01T00:34:06.942Z,93.67
2024-02-01T00:35:10.130Z,94.18
2024-02-01T00:36:12.277Z,94.20
2024-02-01T00:37:15.068Z,93.55
2024-02-01T00:38:18.393Z,93.46
2024-02-01T00:39:20.349Z,93.48
2024-02-01T00:40:23.277Z,92.87
2024-02-01T00:41:25.254Z,94.13
2024-02-01T00:42:28.648Z,93.96
2024-02-01T00:43:30.638Z,93.55
2024-02-01T00:44:33.597Z,93.03
2024-02-01T00:45:35.470Z,93.60
2024-02-01T00:46:38.400Z,93.99
2024-02-01T00:47:40.471Z,93.77
2024-02-01T00:48:43.592Z,93.96
2024-02-01T00:49:45.563Z,93.65
2024-02-01T00:50:48.647Z,94.18
2024-02-01T00:51:50.550Z,94.37
2024-02-01T00:52:53.443Z,94.30
2024-02-01T00:53:56.717Z,94.85
2024-02-01T00:54:59.735Z,94.62
2024-02-01T00:56:01.601Z,95.40
2024-02-01T00:57:05.603Z,95.51
2024-02-01T00:58:07.501Z,95.86
2024-02-01T00:59:10.412Z,95.56
2024-02-01T01:00:14.031Z,95.73
2024-02-01T01:01:16.268Z,95.63
2024-02-01T01:02:19.148Z,95.53
2024-02-01T01:03:21.181Z,96.32
2024-02-01T01:04:24.018Z,96.06
2024-02-01T01:05:25.958Z,95.60
2024-02-01T01:06:29.303Z,95.74
2024-02-01T01:07:31.394Z,95.70
2024-02-01T01:08:34.229Z,95.86
2024-02-01T01:09:37.708Z,95.36
2024-02-01T01:10:40.625Z,96.29
2024-02-01T01:11:42.587Z,96.25
2024-02-01T01:12:45.474Z,95.92
2024-02-01T01:13:47.489Z,96.15
2024-02-01T01:14:50.724Z,96.09
2024-02-01T01:15:52.684Z,96.54
2024-02-01T01:16:55.531Z,96.35
2024-02-01T01:17:57.602Z,96.35
2024-02-01T01:19:00.713Z,95.94
2024-02-01T01:20:04.526Z,96.29
2024-02-01T01:21:07.617Z,95.74
2024-02-01T01:22:09.624Z,95.64
2024-02-01T01:23:12.417Z,95.99
2024-02-01T01:24:14.516Z,95.72
2024-02-01T01:25:18.923Z,96.01
2024-02-01T01:26:21.995Z,95.42
2024-02-01T01:27:24.825Z,95.45
2024-02-01T01:28:26.829Z,95.72
2024-02-01T01:29:29.672Z,96.18
2024-02-01T01:30:31.787Z,95.42
2024-02-01T01:31:34.553Z,95.25
2024-02-01T01:32:36.692Z,95.38
2024-02-01T01:33:39.655Z,95.08
2024-02-01T01:34:41.771Z,95.20
2024-02-01T01:35:43.644Z,95.68
2024-02-01T01:36:46.623Z,95.48
2024-02-01T01:37:48.468Z,95.53
2024-02-01T01:38:51.474Z,95.00
2024-02-01T01:39:53.476Z,94.99
2024-02-01T01:40:58.060Z,95.13
2024-02-01T01:41:59.969Z,95.41
2024-02-01T01:43:05.247Z,94.89
2024-02-01T01:44:07.128Z,94.89
2024-02-01T01:45:10.732Z,94.71
2024-02-01T01:46:13.328Z,94.23
2024-02-01T01:47:16.729Z,94.51
2024-02-01T01:48:18.634Z,94.79
2024-02-01T01:49:21.894Z,95.09
2024-02-01T01:50:23.809Z,95.19
2024-02-01T01:51:26.798Z,95.25
2024-02-01T01:52:29.134Z,95.09
2024-02-01T01:53:33.314Z,95.64
2024-02-01T01:54:36.481Z,96.43
2024-02-01T01:55:39.652Z,96.69
2024-02-01T01:56:43.746Z,96.49
2024-02-01T01:57:46.885Z,96.65
2024-02-01T01:58:49.325Z,96.38
2024-02-01T01:59:52.341Z,96.18
2024-02-01T02:00:54.391Z,96.16
2024-02-01T02:01:58.404Z,95.75
2024-02-01T02:03:00.632Z,95.74
2024-02-01T02:04:05.044Z,95.47
2024-02-01T02:05:07.436Z,95.60
2024-02-01T02:06:10.440Z,95.36
2024-02-01T02:07:12.381Z,95.91
2024-02-01T02:08:15.367Z,96.31
2024-02-01T02:09:17.450Z,96.85
2024-02-01T02:10:20.841Z,96.52
2024-02-01T02:11:24.812Z,96.08
2024-02-01T02:12:29.149Z,95.66
2024-02-01T02:13:31.210Z,96.04
2024-02-01T02:14:33.131Z,96.36
2024-02-01T02:15:36.133Z,96.38
2024-02-01T02:16:38.719Z,95.81
2024-02-01T02:17:41.937Z,95.81
2024-02-01T02:18:44.151Z,96.12
2024-02-01T02:19:47.194Z,95.53
2024-02-01T02:20:53.045Z,95.80
2024-02-01T02:21:56.486Z,95.84
2024-02-01T02:22:59.280Z,95.90
2024-02-01T02:24:01.491Z,95.56
2024-02-01T02:25:06.288Z,95.68
2024-02-01T02:26:09.313Z,96.05
2024-02-01T02:27:12.150Z,95.71
2024-02-01T02:28:14.152Z,95.98
2024-02-01T02:29:17.564Z,95.82
2024-02-01T02:30:19.673Z,95.66
2024-02-01T02:31:22.528Z,95.51
2024-02-01T02:32:24.520Z,95.72
2024-02-01T02:33:27.408Z,95.76
2024-02-01T02:34:29.527Z,95.88
2024-02-01T02:35:32.537Z,95.45
2024-02-01T02:36:34.497Z,94.87
2024-02-01T02:37:45.835Z,94.71
2024-02-01T02:38:47.829Z,95.27
2024-02-01T02:39:50.632Z,95.13
2024-02-01T02:40:52.581Z,94.72
2024-02-01T02:41:55.540Z,94.91
2024-02-01T02:42:57.543Z,95.02
2024-02-01T02:44:02.178Z,94.66
2024-02-01T02:45:04.642Z,95.32
2024-02-01T02:46:07.584Z,94.88
2024-02-01T02:47:09.737Z,94.85
2024-02-01T02:48:12.744Z,94.70
2024-02-01T02:49:14.988Z,94.41
2024-02-01T02:50:18.093Z,94.55
2024-02-01T02:51:20.099Z,94.94
2024-02-01T02:52:22.906Z,94.82
2024-02-01T02:53:26.237Z,95.56
2024-02-01T02:54:29.022Z,95.31
2024-02-01T02:55:31.024Z,95.20
2024-02-01T02:56:33.981Z,94.85
2024-02-01T02:57:36.363Z,94.49
2024-02-01T02:58:39.623Z,94.66
2024-02-01T02:59:42.508Z,95.04
2024-02-01T03:00:44.409Z,94.54
2024-02-01T03:01:47.369Z,94.98
2024-02-01T03:02:49.487Z,95.23
2024-02-01T03:03:52.494Z,95.19
2024-02-01T03:04:54.391Z,95.38
2024-02-01T03:05:57.363Z,95.45
2024-02-01T03:06:59.310Z,95.02
2024-02-01T03:08:06.083Z,95.00
2024-02-01T03:09:11.143Z,95.01
2024-02-01T03:10:16.744Z,94.68
2024-02-01T03:11:18.723Z,94.92
2024-02-01T03:12:21.616Z,94.92
2024-02-01T03:13:23.687Z,94.66
2024-02-01T03:14:26.478Z,94.93
2024-02-01T03:15:30.360Z,95.14
2024-02-01T03:16:33.243Z,95.04
2024-02-01T03:17:36.532Z,94.85
2024-02-01T03:18:39.477Z,94.89
2024-02-01T03:19:41.601Z,94.57
2024-02-01T03:20:45.579Z,94.57
2024-02-01T03:21:49.472Z,94.96
2024-02-01T03:22:56.123Z,94.65
2024-02-01T03:24:01.937Z,94.84
2024-02-01T03:25:08.132Z,94.94
2024-02-01T03:26:11.251Z,94.70
2024-02-01T03:27:13.695Z,94.93
2024-02-01T03:28:16.817Z,94.72
2024-02-01T03:29:18.706Z,94.94
2024-02-01T03:30:21.127Z,94.58
2024-02-01T03:31:23.904Z,94.85
2024-02-01T03:32:31.154Z,94.97
2024-02-01T03:33:40.085Z,94.78
2024-02-01T03:34:43.585Z,94.95
2024-02-01T03:35:46.858Z,94.58
2024-02-01T03:36:50.823Z,94.54
2024-02-01T03:37:53.579Z,94.88
2024-02-01T03:38:55.619Z,94.26
2024-02-01T03:39:57.657Z,94.32
2024-02-01T03:41:01.966Z,94.76
2024-02-01T03:42:06.528Z,94.14
2024-02-01T03:43:12.346Z,94.24
2024-02-01T03:44:14.174Z,94.38
2024-02-01T03:45:17.732Z,94.48
2024-02-01T03:46:20.640Z,94.43
2024-02-01T03:47:24.302Z,94.01
2024-02-01T03:48:26.302Z,94.23
2024-02-01T03:49:29.357Z,94.03
2024-02-01T03:50:31.287Z,94.01
2024-02-01T03:51:37.074Z,94.53
2024-02-01T03:52:39.388Z,93.94
2024-02-01T03:53:42.284Z,94.50
2024-02-01T03:54:44.228Z,93.94
2024-02-01T03:55:50.397Z,94.44
2024-02-01T03:56:55.520Z,94.36
2024-02-01T03:58:01.161Z,94.03
2024-02-01T03:59:03.594Z,94.15
2024-02-01T04:00:25.668Z,93.80
2024-02-01T04:01:27.736Z,94.05
2024-02-01T04:02:30.640Z,93.92
2024-02-01T04:03:32.621Z,93.90
2024-02-01T04:04:35.526Z,94.05
2024-02-01T04:05:38.070Z,93.72
2024-02-01T04:06:41.149Z,93.84
2024-02-01T04:07:43.119Z,93.40
2024-02-01T04:08:45.901Z,93.61
2024-02-01T04:09:48.755Z,93.45
2024-02-01T04:10:52.239Z,93.26
2024-02-01T04:11:55.763Z,93.17
2024-02-01T04:12:59.036Z,93.21
2024-02-01T04:14:01.020Z,93.42
2024-02-01T04:15:04.354Z,93.67
2024-02-01T04:16:06.989Z,93.18
2024-02-01T04:17:09.890Z,93.55
2024-02-01T04:18:11.977Z,93.68
2024-02-01T04:19:15.461Z,93.10
2024-02-01T04:20:17.671Z,93.72
2024-02-01T04:21:20.643Z,93.30
2024-02-01T04:22:22.721Z,93.27
2024-02-01T04:23:25.691Z,93.03
2024-02-01T04:24:27.628Z,93.18
2024-02-01T04:25:30.462Z,93.33
2024-02-01T04:26:32.478Z,92.80
2024-02-01T04:27:36.727Z,92.68
2024-02-01T04:28:39.148Z,93.14
2024-02-01T04:29:42.013Z,93.83
2024-02-01T04:30:51.423Z,93.70
2024-02-01T04:31:54.945Z,93.99
2024-02-01T04:32:57.359Z,93.86
2024-02-01T04:34:01.717Z,93.69
2024-02-01T04:35:05.421Z,93.71
2024-02-01T04:36:09.980Z,93.90
2024-02-01T04:37:13.492Z,93.86
2024-02-01T04:38:15.441Z,93.67
2024-02-01T04:39:18.461Z,94.07
2024-02-01T04:40:22.080Z,93.65
2024-02-01T04:41:26.046Z,93.95
2024-02-01T04:42:31.532Z,94.01
2024-02-01T04:43:37.531Z,93.59
2024-02-01T04:44:39.347Z,93.64
2024-02-01T04:45:43.237Z,93.49
2024-02-01T04:46:45.264Z,93.84
2024-02-01T04:47:49.085Z,93.47
2024-02-01T04:48:52.211Z,93.52
2024-02-01T04:49:54.221Z,93.72
2024-02-01T04:50:57.222Z,93.98
2024-02-01T04:51:59.101Z,93.76
2024-02-01T04:53:01.993Z,93.60
2024-02-01T04:54:05.239Z,93.84
2024-02-01T04:55:10.800Z,93.95
2024-02-01T04:56:12.808Z,94.41
2024-02-01T04:57:16.106Z,93.92
2024-02-01T04:58:19.356Z,93.79
2024-02-01T04:59:23.782Z,93.76
2024-02-01T05:00:27.934Z,93.33
2024-02-01T05:01:32.417Z,93.82
2024-02-01T05:02:34.357Z,93.92
2024-02-01T05:03:37.836Z,93.96
2024-02-01T05:04:40.107Z,93.71
2024-02-01T05:05:46.383Z,93.72
2024-02-01T05:06:48.762Z,93.59
2024-02-01T05:07:51.685Z,93.95
2024-02-01T05:08:54.163Z,94.27
2024-02-01T05:09:57.164Z,94.29
2024-02-01T05:10:59.281Z,94.03
2024-02-01T05:12:03.165Z,93.89
2024-02-01T05:13:05.204Z,93.88
2024-02-01T05:14:11.990Z,93.92
2024-02-01T05:15:15.473Z,94.31
2024-02-01T05:16:18.288Z,93.82
2024-02-01T05:17:20.251Z,94.17
2024-02-01T05:18:23.189Z,93.99
2024-02-01T05:19:26.581Z,93.77
2024-02-01T05:20:29.574Z,94.35
2024-02-01T05:21:31.564Z,94.39
2024-02-01T05:22:34.360Z,93.85
2024-02-01T05:23:36.769Z,93.80
2024-02-01T05:24:39.575Z,93.89
2024-02-01T05:25:41.972Z,94.02
2024-02-01T05:26:47.517Z,94.42
2024-02-01T05:27:52.428Z,94.43
2024-02-01T05:28:55.810Z,94.34
2024-02-01T05:29:57.812Z,94.59
2024-02-01T05:31:01.959Z,94.00
2024-02-01T05:32:07.277Z,94.18
2024-02-01T05:33:10.597Z,94.79
2024-02-01T05:34:12.692Z,94.53
2024-02-01T05:35:15.225Z,94.53
2024-02-01T05:36:18.189Z,94.70
2024-02-01T05:37:20.072Z,94.41
2024-02-01T05:38:23.081Z,94.45
2024-02-01T05:39:28.120Z,94.29
2024-02-01T05:40:32.649Z,94.67
2024-02-01T05:41:34.513Z,94.49
2024-02-01T05:42:37.452Z,94.59
2024-02-01T05:43:39.296Z,95.02
2024-02-01T05:44:42.247Z,94.60
2024-02-01T05:45:44.140Z,94.56
2024-02-01T05:46:48.669Z,95.02
2024-02-01T05:47:52.698Z,94.70
2024-02-01T05:48:56.117Z,95.40
2024-02-01T05:49:59.761Z,95.16
2024-02-01T05:51:01.839Z,95.60
2024-02-01T05:52:06.235Z,95.15
2024-02-01T05:53:10.717Z,94.92
2024-02-01T05:54:13.613Z,95.37
2024-02-01T05:55:15.625Z,95.59
2024-02-01T05:56:18.384Z,95.67
2024-02-01T05:57:21.417Z,95.53
2024-02-01T05:58:24.602Z,95.32
2024-02-01T05:59:26.685Z,95.48
2024-02-01T06:00:30.457Z,95.50
2024-02-01T06:01:33.787Z,95.46
2024-02-01T06:02:37.995Z,95.17
2024-02-01T06:03:39.940Z,95.43
2024-02-01T06:04:44.501Z,95.49
2024-02-01T06:05:50.772Z,95.27
2024-02-01T06:06:54.601Z,95.74
2024-02-01T06:07:56.686Z,95.61
2024-02-01T06:08:59.518Z,95.27
2024-02-01T06:10:01.548Z,95.41
2024-02-01T06:11:04.496Z,95.47
2024-02-01T06:12:06.728Z,95.40
2024-02-01T06:13:09.642Z,95.49
2024-02-01T06:14:12.314Z,95.80
2024-02-01T06:15:15.224Z,95.83
2024-02-01T06:16:17.124Z,95.67
2024-02-01T06:17:20.082Z,96.08
2024-02-01T06:18:23.629Z,96.29
2024-02-01T06:19:25.780Z,96.21
2024-02-01T06:20:29.416Z,95.66
2024-02-01T06:21:33.038Z,95.91
2024-02-01T06:22:36.083Z,96.19
2024-02-01T06:23:38.228Z,96.25
2024-02-01T06:24:40.998Z,95.96
2024-02-01T06:25:44.661Z,96.01
2024-02-01T06:26:47.564Z,95.93
2024-02-01T06:27:49.885Z,95.68
2024-02-01T06:28:51.736Z,95.87
2024-02-01T06:29:54.673Z,95.98
2024-02-01T06:30:56.505Z,95.80
2024-02-01T06:31:59.461Z,95.41
2024-02-01T06:33:02.321Z,95.86
2024-02-01T06:34:06.918Z,95.84
2024-02-01T06:35:17.590Z,95.81
2024-02-01T06:36:21.019Z,96.08
2024-02-01T06:37:23.160Z,95.57
2024-02-01T06:38:46.354Z,96.11
2024-02-01T06:40:09.936Z,95.41
2024-02-01T06:41:29.018Z,95.86
2024-02-01T06:42:34.373Z,95.42
2024-02-01T06:44:02.758Z,95.54
2024-02-01T06:45:25.127Z,95.49
2024-02-01T06:46:48.042Z,95.60
2024-02-01T06:47:51.917Z,95.79
2024-02-01T06:49:12.840Z,95.84
2024-02-01T06:50:18.078Z,95.97
2024-02-01T06:51:27.074Z,95.94
2024-02-01T06:52:41.003Z,96.09
2024-02-01T06:53:55.553Z,96.04
2024-02-01T06:55:07.751Z,96.20
2024-02-01T06:56:19.358Z,96.31
2024-02-01T06:57:23.855Z,95.71
2024-02-01T06:58:49.295Z,95.61
2024-02-01T07:00:16.046Z,95.61
2024-02-01T07:01:49.929Z,95.46
2024-02-01T07:03:02.937Z,95.55
2024-02-01T07:04:17.615Z,95.52
2024-02-01T07:05:27.124Z,95.60
2024-02-01T07:06:36.680Z,95.28
2024-02-01T07:07:44.119Z,95.56
2024-02-01T07:08:54.258Z,95.81
2024-02-01T07:10:00.376Z,95.82
2024-02-01T07:11:15.438Z,95.67
2024-02-01T07:12:40.432Z,95.42
2024-02-01T07:13:48.803Z,95.44
2024-02-01T07:15:10.530Z,95.20
2024-02-01T07:16:23.232Z,95.24
2024-02-01T07:17:28.857Z,95.19
2024-02-01T07:18:32.354Z,95.38
2024-02-01T07:19:54.159Z,95.24
2024-02-01T07:21:01.550Z,95.25
2024-02-01T07:22:07.668Z,95.03
2024-02-01T07:23:35.241Z,95.23
2024-02-01T07:24:50.144Z,94.64
2024-02-01T07:26:02.706Z,94.88
2024-02-01T07:27:26.234Z,94.64
2024-02-01T07:28:48.442Z,94.88
2024-02-01T07:30:08.793Z,94.40
2024-02-01T07:31:29.166Z,94.70
2024-02-01T07:32:49.354Z,94.26
2024-02-01T07:34:21.421Z,94.50
2024-02-01T07:35:42.007Z,94.37
2024-02-01T07:37:04.056Z,93.96
2024-02-01T07:38:24.586Z,93.97
2024-02-01T07:39:44.870Z,94.09
2024-02-01T07:41:05.176Z,93.82
2024-02-01T07:42:26.011Z,93.67
2024-02-01T07:43:46.224Z,93.56
2024-02-01T07:45:08.813Z,93.30
2024-02-01T07:46:30.240Z,93.76
2024-02-01T07:47:51.740Z,93.30
2024-02-01T07:49:11.371Z,92.95
2024-02-01T07:50:32.170Z,93.34
2024-02-01T07:51:52.361Z,93.26
2024-02-01T07:53:14.680Z,92.46
2024-02-01T07:54:34.953Z,92.41
2024-02-01T07:55:55.973Z,92.68
2024-02-01T07:57:16.289Z,92.91
2024-02-01T07:58:22.591Z,92.48
2024-02-01T07:59:30.587Z,92.87
2024-02-01T08:00:36.203Z,93.09
2024-02-01T08:01:59.338Z,92.89
2024-02-01T08:03:05.106Z,92.97
2024-02-01T08:04:14.654Z,92.96
2024-02-01T08:05:35.888Z,93.12
2024-02-01T08:06:58.420Z,92.67
2024-02-01T08:08:02.867Z,92.37
2024-02-01T08:09:12.764Z,92.69
2024-02-01T08:10:20.239Z,92.75
2024-02-01T08:11:23.348Z,92.56
2024-02-01T08:12:34.598Z,92.02
2024-02-01T08:13:36.831Z,92.14
2024-02-01T08:14:39.838Z,92.38
2024-02-01T08:15:43.394Z,92.09
2024-02-01T08:16:47.647Z,92.10
2024-02-01T08:17:50.156Z,92.46
2024-02-01T08:18:53.187Z,92.60
2024-02-01T08:19:56.693Z,91.98
2024-02-01T08:20:59.159Z,92.03
2024-02-01T08:22:02.055Z,91.62
2024-02-01T08:23:05.679Z,91.75
2024-02-01T08:24:10.589Z,91.57
2024-02-01T08:25:12.855Z,91.69
2024-02-01T08:26:18.371Z,91.63
2024-02-01T08:27:20.634Z,91.87
2024-02-01T08:28:30.932Z,91.94
2024-02-01T08:29:37.943Z,91.25
2024-02-01T08:30:40.436Z,91.24
2024-02-01T08:31:43.250Z,91.11
2024-02-01T08:32:45.188Z,91.15
2024-02-01T08:33:54.068Z,91.23
2024-02-01T08:34:58.363Z,91.38
2024-02-01T08:36:03.441Z,91.25
2024-02-01T08:37:10.679Z,90.86
2024-02-01T08:38:16.354Z,90.52
2024-02-01T08:39:19.352Z,90.87
2024-02-01T08:40:22.107Z,90.69
2024-02-01T08:41:25.009Z,91.05
2024-02-01T08:42:34.171Z,91.18
2024-02-01T08:43:39.803Z,91.11
2024-02-01T08:44:44.513Z,90.68
2024-02-01T08:45:46.907Z,90.58
2024-02-01T08:46:51.412Z,90.78
2024-02-01T08:47:53.813Z,90.36
2024-02-01T08:48:56.943Z,90.47
2024-02-01T08:50:07.465Z,90.59
2024-02-01T08:51:10.470Z,90.30
2024-02-01T08:52:15.431Z,90.46
2024-02-01T08:53:20.738Z,90.17
2024-02-01T08:54:22.639Z,90.36
2024-02-01T08:55:26.285Z,90.26
2024-02-01T08:56:37.796Z,89.93
2024-02-01T08:57:40.434Z,89.43
2024-02-01T08:58:43.916Z,89.20
2024-02-01T08:59:46.132Z,89.61
2024-02-01T09:00:50.248Z,89.48
2024-02-01T09:01:53.781Z,89.26
2024-02-01T09:03:07.867Z,88.60
2024-02-01T09:04:16.166Z,89.10
2024-02-01T09:05:21.035Z,89.49
2024-02-01T09:06:24.385Z,89.80
2024-02-01T09:07:28.564Z,89.85
2024-02-01T09:08:37.829Z,88.92
2024-02-01T09:09:41.078Z,89.78
2024-02-01T09:10:51.888Z,89.50
2024-02-01T09:11:54.078Z,89.32
2024-02-01T09:12:56.244Z,89.29
2024-02-01T09:14:01.681Z,88.64
2024-02-01T09:15:04.180Z,88.80
2024-02-01T09:16:09.445Z,88.70
2024-02-01T09:17:11.281Z,88.40
2024-02-01T09:18:14.445Z,88.42
2024-02-01T09:19:16.638Z,88.49
2024-02-01T09:20:19.221Z,88.78
2024-02-01T09:21:22.281Z,88.66
2024-02-01T09:22:36.694Z,88.49
2024-02-01T09:23:40.875Z,88.11
2024-02-01T09:24:42.923Z,88.33
2024-02-01T09:25:46.082Z,88.39
2024-02-01T09:26:48.580Z,88.13
2024-02-01T09:27:51.928Z,88.51
2024-02-01T09:28:53.939Z,88.36
2024-02-01T09:30:00.472Z,88.44
2024-02-01T09:31:19.600Z,88.12
2024-02-01T09:32:23.587Z,88.41
2024-02-01T09:33:28.891Z,88.62
2024-02-01T09:34:32.081Z,88.64
2024-02-01T09:35:37.422Z,88.67
2024-02-01T09:36:40.438Z,88.77
2024-02-01T09:37:43.268Z,88.81
2024-02-01T09:38:48.196Z,88.88
2024-02-01T09:39:50.072Z,88.78
2024-02-01T09:40:53.612Z,88.94
2024-02-01T09:41:56.072Z,89.13
2024-02-01T09:42:59.136Z,89.07
2024-02-01T09:44:01.084Z,89.48
2024-02-01T09:45:06.605Z,89.43
2024-02-01T09:46:09.504Z,89.54
2024-02-01T09:47:11.960Z,89.63
2024-02-01T09:48:17.346Z,89.80
2024-02-01T09:49:25.518Z,89.89
2024-02-01T09:50:34.763Z,89.79
2024-02-01T09:51:36.765Z,90.23
2024-02-01T09:52:41.150Z,89.98
2024-02-01T09:53:44.876Z,90.36
2024-02-01T09:54:49.152Z,90.20
2024-02-01T09:55:53.926Z,90.51
2024-02-01T09:56:57.942Z,90.68
2024-02-01T09:58:00.896Z,90.83
2024-02-01T09:59:04.150Z,90.79
2024-02-01T10:00:13.763Z,90.91
2024-02-01T10:01:16.909Z,90.93
2024-02-01T10:02:19.649Z,90.95
2024-02-01T10:03:24.988Z,91.37
2024-02-01T10:04:27.384Z,91.50
2024-02-01T10:05:30.426Z,91.33
2024-02-01T10:06:32.342Z,91.77
2024-02-01T10:07:35.502Z,91.95
2024-02-01T10:08:38.098Z,91.65
2024-02-01T10:09:41.040Z,91.99
2024-02-01T10:10:46.380Z,92.32
2024-02-01T10:11:49.381Z,92.56
2024-02-01T10:12:53.183Z,92.73
2024-02-01T10:14:01.902Z,92.83
2024-02-01T10:15:12.279Z,92.78
2024-02-01T10:16:17.967Z,92.65
2024-02-01T10:17:21.045Z,92.97
2024-02-01T10:18:27.084Z,93.30
2024-02-01T10:19:29.665Z,93.64
2024-02-01T10:20:35.388Z,93.46
2024-02-01T10:21:44.615Z,93.65
2024-02-01T10:22:58.441Z,93.69
2024-02-01T10:24:05.649Z,94.24
2024-02-01T10:25:10.593Z,94.54
2024-02-01T10:26:24.367Z,94.82
2024-02-01T10:27:29.489Z,94.52
2024-02-01T10:28:36.495Z,94.28
2024-02-01T10:29:41.733Z,94.52
2024-02-01T10:30:46.340Z,94.36
2024-02-01T10:31:51.979Z,94.59
2024-02-01T10:32:58.504Z,95.34
2024-02-01T10:34:10.199Z,95.17
2024-02-01T10:35:15.475Z,95.12
2024-02-01T10:36:22.077Z,95.21
2024-02-01T10:37:26.379Z,95.14
2024-02-01T10:38:29.255Z,95.43
2024-02-01T10:39:36.031Z,95.61
2024-02-01T10:40:41.271Z,95.40
2024-02-01T10:41:49.097Z,95.35
2024-02-01T10:42:50.916Z,95.25
2024-02-01T10:43:54.494Z,95.17
2024-02-01T10:44:58.268Z,95.52
2024-02-01T10:46:08.592Z,96.31
2024-02-01T10:47:14.878Z,96.19
2024-02-01T10:48:19.848Z,95.91
2024-02-01T10:49:24.058Z,96.11
2024-02-01T10:50:33.994Z,95.92
2024-02-01T10:51:37.813Z,96.80
2024-02-01T10:52:39.943Z,96.49
2024-02-01T10:53:44.548Z,96.02
2024-02-01T10:54:48.159Z,96.34
2024-02-01T10:55:52.834Z,96.52
2024-02-01T10:57:03.559Z,96.75
2024-02-01T10:58:06.886Z,97.07
2024-02-01T10:59:10.078Z,97.51
2024-02-01T11:00:21.510Z,97.61
2024-02-01T11:01:25.793Z,97.83
2024-02-01T11:02:28.790Z,97.99
2024-02-01T11:03:33.409Z,98.06
2024-02-01T11:04:38.073Z,98.09
2024-02-01T11:05:43.154Z,98.15
2024-02-01T11:06:50.314Z,98.51
2024-02-01T11:07:52.560Z,98.61
2024-02-01T11:08:56.267Z,98.62
2024-02-01T11:09:59.889Z,98.53
2024-02-01T11:11:01.916Z,98.51
2024-02-01T11:12:13.229Z,98.27
2024-02-01T11:13:29.156Z,98.74
2024-02-01T11:14:33.248Z,98.44
2024-02-01T11:15:35.370Z,98.36
2024-02-01T11:16:39.063Z,98.42
2024-02-01T11:17:41.956Z,98.47
2024-02-01T11:18:51.604Z,98.58
2024-02-01T11:19:55.183Z,98.49
2024-02-01T11:20:58.710Z,98.98
2024-02-01T11:22:04.853Z,98.97
2024-02-01T11:23:07.181Z,98.97
2024-02-01T11:24:10.511Z,98.84
2024-02-01T11:25:12.843Z,98.94
2024-02-01T11:26:16.648Z,99.17
2024-02-01T11:27:22.286Z,99.02
2024-02-01T11:28:31.160Z,98.98
2024-02-01T11:29:36.031Z,99.32
2024-02-01T11:30:39.771Z,99.32
2024-02-01T11:31:48.066Z,99.37
2024-02-01T11:32:53.424Z,99.53
2024-02-01T11:33:55.893Z,99.46
2024-02-01T11:35:01.027Z,99.20
2024-02-01T11:36:04.230Z,99.27
2024-02-01T11:37:07.177Z,99.48
2024-02-01T11:38:10.700Z,100.00
2024-02-01T11:39:14.525Z,99.88
2024-02-01T11:40:19.799Z,99.83
2024-02-01T11:41:24.235Z,99.77
2024-02-01T11:42:32.253Z,99.87
2024-02-01T11:43:39.783Z,100.00
2024-02-01T11:44:41.958Z,100.00
2024-02-01T11:45:54.728Z,100.00
2024-02-01T11:46:57.348Z,100.00
2024-02-01T11:47:59.460Z,100.00
2024-02-01T11:49:02.588Z,100.00
2024-02-01T11:50:05.755Z,100.00
2024-02-01T11:51:09.609Z,100.00
2024-02-01T11:52:17.016Z,100.00
2024-02-01T11:53:20.085Z,100.00
2024-02-01T11:54:22.061Z,100.00
2024-02-01T11:55:28.650Z,100.00
2024-02-01T11:56:33.568Z,100.00
2024-02-01T11:57:48.307Z,100.00
2024-02-01T11:58:50.420Z,100.00
2024-02-01T11:59:56.638Z,100.00
2024-02-01T12:01:06.709Z,100.00
2024-02-01T12:02:17.308Z,100.00
2024-02-01T12:03:21.190Z,100.00
2024-02-01T12:04:24.600Z,100.00
2024-02-01T12:05:27.797Z,100.00
2024-02-01T12:06:30.765Z,100.00
2024-02-01T12:07:32.582Z,100.00
2024-02-01T12:08:36.186Z,100.00
2024-02-01T12:09:38.106Z,100.00
2024-02-01T12:10:46.059Z,100.00
2024-02-01T12:11:48.753Z,100.00
2024-02-01T12:12:53.076Z,100.00
2024-02-01T12:13:55.993Z,100.00
2024-02-01T12:14:59.422Z,100.00
2024-02-01T12:16:01.257Z,100.00
2024-02-01T12:17:05.314Z,100.00
2024-02-01T12:18:09.658Z,100.00
2024-02-01T12:19:14.842Z,100.00
2024-02-01T12:20:17.367Z,100.00
2024-02-01T12:21:27.791Z,100.00
2024-02-01T12:22:33.163Z,100.00
2024-02-01T12:23:36.076Z,100.00
2024-02-01T12:24:38.216Z,100.00
2024-02-01T12:25:41.914Z,100.00
2024-02-01T12:26:44.024Z,100.00
2024-02-01T12:27:47.335Z,100.00
2024-02-01T12:28:51.039Z,100.00
2024-02-01T12:29:53.945Z,100.00
2024-02-01T12:31:11.284Z,100.00
2024-02-01T12:32:14.602Z,100.00
2024-02-01T12:33:17.124Z,100.00
2024-02-01T12:34:21.133Z,100.00
2024-02-01T12:35:23.332Z,100.00
2024-02-01T12:36:26.177Z,100.00
2024-02-01T12:37:28.188Z,100.00
2024-02-01T12:38:42.318Z,100.00
2024-02-01T12:39:44.786Z,100.00
2024-02-01T12:40:47.855Z,100.00
2024-02-01T12:41:49.939Z,100.00
2024-02-01T12:42:54.522Z,100.00
2024-02-01T12:43:57.815Z,100.00
2024-02-01T12:45:00.906Z,100.00
2024-02-01T12:46:03.625Z,100.00
2024-02-01T12:47:07.273Z,100.00
2024-02-01T12:48:09.240Z,100.00
2024-02-01T12:49:14.158Z,100.00
2024-02-01T12:50:17.098Z,100.00
2024-02-01T12:51:19.326Z,100.00
2024-02-01T12:52:22.188Z,100.00
2024-02-01T12:53:24.285Z,100.00
2024-02-01T12:54:27.131Z,100.00
2024-02-01T12:55:29.137Z,100.00
2024-02-01T12:56:33.399Z,100.00
2024-02-01T12:57:37.568Z,100.00
2024-02-01T12:58:41.375Z,100.00
2024-02-01T12:59:45.723Z,100.00
2024-02-01T13:00:47.993Z,100.00
2024-02-01T13:01:51.799Z,100.00
2024-02-01T13:02:56.773Z,100.00
2024-02-01T13:03:59.734Z,100.00
2024-02-01T13:05:05.761Z,100.00
2024-02-01T13:06:08.936Z,100.00
2024-02-01T13:07:14.262Z,100.00
2024-02-01T13:08:17.438Z,100.00
2024-02-01T13:09:29.677Z,100.00
2024-02-01T13:10:40.053Z,100.00
2024-02-01T13:11:43.605Z,100.00
2024-02-01T13:12:57.578Z,100.00
2024-02-01T13:14:00.100Z,100.00
2024-02-01T13:15:06.850Z,100.00
2024-02-01T13:16:09.290Z,100.00
2024-02-01T13:17:13.806Z,100.00
2024-02-01T13:18:17.343Z,100.00
2024-02-01T13:19:20.443Z,100.00
2024-02-01T13:20:23.038Z,100.00
2024-02-01T13:21:26.664Z,100.00
2024-02-01T13:22:30.118Z,100.00
2024-02-01T13:23:33.043Z,100.00
2024-02-01T13:24:34.841Z,100.00
2024-02-01T13:25:39.330Z,100.00
2024-02-01T13:26:41.563Z,100.00
2024-02-01T13:27:44.532Z,100.00
2024-02-01T13:28:47.379Z,100.00
2024-02-01T13:29:50.422Z,100.00
2024-02-01T13:30:53.675Z,100.00
2024-02-01T13:31:56.892Z,100.00
2024-02-01T13:33:00.255Z,100.00
2024-02-01T13:34:03.940Z,100.00
2024-02-01T13:35:07.613Z,100.00
2024-02-01T13:36:11.695Z,100.00
2024-02-01T13:37:13.906Z,100.00
2024-02-01T13:38:16.922Z,100.00
2024-02-01T13:39:19.687Z,100.00
2024-02-01T13:40:21.810Z,100.00
2024-02-01T13:41:24.776Z,100.00
2024-02-01T13:42:26.730Z,100.00
2024-02-01T13:43:29.502Z,100.00
2024-02-01T13:44:33.352Z,100.00
2024-02-01T13:45:37.452Z,100.00
2024-02-01T13:46:40.861Z,100.00
2024-02-01T13:47:52.842Z,100.00
2024-02-01T13:48:56.179Z,100.00
2024-02-01T13:49:59.350Z,100.00
2024-02-01T13:51:04.753Z,100.00
2024-02-01T13:52:08.278Z,100.00
2024-02-01T13:53:10.313Z,100.00